Time;durP1;ratioP1;P1;durP2;ratioP2;P2;SDS_P1;SDS_P2;PMS_P1;PMS_P2;Temp;Humidity;BMP_temperature;BMP_pressure;BME280_temperature;BME280_humidity;BME280_pressure;Samples;Min_cycle;Max_cycle;Signal;HPM_P1;HPM_P2
2023/08/22 00:01:19;;;;;;;6.22;2.25;;;;;;;20.90;72.07;101421.16;5072021;28;20045;-51
2023/08/22 00:03:47;;;;;;;8.50;2.42;;;;;;;20.87;72.09;101420.56;5075874;28;20479;-52
2023/08/22 00:06:14;;;;;;;8.13;2.17;;;;;;;20.82;72.38;101414.78;5067861;28;20063;-50
2023/08/22 00:08:42;;;;;;;10.25;3.15;;;;;;;20.79;72.38;101407.88;5071684;28;20056;-50
2023/08/22 00:11:10;;;;;;;9.35;2.08;;;;;;;20.74;72.79;101416.31;5072960;28;20062;-52
2023/08/22 00:13:37;;;;;;;6.05;2.17;;;;;;;20.69;73.09;101421.22;5074035;28;20579;-50
2023/08/22 00:16:04;;;;;;;6.18;2.30;;;;;;;20.66;73.12;101420.66;5072941;28;20368;-53
2023/08/22 00:18:31;;;;;;;6.65;2.13;;;;;;;20.61;73.06;101423.75;5072415;28;20529;-52
2023/08/22 00:20:59;;;;;;;6.35;1.55;;;;;;;20.58;73.32;101416.00;5074156;28;20058;-55
2023/08/22 00:23:26;;;;;;;4.35;2.13;;;;;;;20.55;73.82;101410.91;5068725;28;20083;-51
2023/08/22 00:25:54;;;;;;;6.88;1.98;;;;;;;20.48;74.25;101407.09;5071823;28;20064;-51
2023/08/22 00:28:21;;;;;;;9.07;2.85;;;;;;;20.46;74.18;101399.16;5073542;28;20056;-51
2023/08/22 00:30:52;;;;;;;21.55;3.00;;;;;;;20.46;74.02;101401.84;5072475;28;20107;-56
2023/08/22 00:33:19;;;;;;;4.57;1.92;;;;;;;20.47;74.14;101402.69;5067916;28;20056;-57
2023/08/22 00:35:48;;;;;;;9.45;2.47;;;;;;;20.44;74.39;101402.94;5071692;28;20061;-51
2023/08/22 00:38:15;;;;;;;6.90;2.30;;;;;;;20.40;74.70;101398.88;5065839;28;20057;-53
2023/08/22 00:40:43;;;;;;;7.47;2.10;;;;;;;20.40;74.45;101402.41;5048842;28;20125;-54
2023/08/22 00:43:10;;;;;;;6.22;2.05;;;;;;;20.41;74.57;101397.88;5071733;28;20044;-55
2023/08/22 00:45:38;;;;;;;10.05;2.10;;;;;;;20.41;74.82;101398.72;5069520;28;20058;-53
2023/08/22 00:48:05;;;;;;;8.63;2.20;;;;;;;20.39;74.52;101389.16;5067807;28;20377;-53
2023/08/22 00:50:32;;;;;;;8.90;2.75;;;;;;;20.35;74.77;101393.91;5068936;28;20048;-59
2023/08/22 00:53:01;;;;;;;7.43;2.00;;;;;;;20.34;74.85;101386.03;5047871;28;20052;-53
2023/08/22 00:55:28;;;;;;;6.93;2.42;;;;;;;20.31;75.09;101386.28;5069119;28;20052;-56
2023/08/22 00:57:55;;;;;;;7.28;2.42;;;;;;;20.31;75.15;101391.63;5072605;28;20074;-56
2023/08/22 01:00:22;;;;;;;7.82;2.22;;;;;;;20.33;75.20;101384.34;5072383;28;20060;-54
2023/08/22 01:02:55;;;;;;;9.73;2.67;;;;;;;20.34;75.24;101381.53;5065382;28;20611;-53
2023/08/22 01:05:25;;;;;;;10.18;2.42;;;;;;;20.35;75.11;101377.03;5070353;28;20453;-54
2023/08/22 01:08:04;;;;;;;10.65;2.53;;;;;;;20.33;74.82;101373.66;5064038;28;20139;-57
2023/08/22 01:10:35;;;;;;;18.77;2.90;;;;;;;20.34;75.20;101370.00;5049922;28;20086;-57
2023/08/22 01:13:22;;;;;;;7.50;2.42;;;;;;;20.34;74.95;101372.66;5071091;28;20127;-54
2023/08/22 01:15:50;;;;;;;8.05;2.90;;;;;;;20.35;74.13;101379.69;5051864;28;20151;-52
2023/08/22 01:18:18;;;;;;;11.85;2.88;;;;;;;20.34;74.12;101376.19;5072944;28;20468;-54
2023/08/22 01:20:45;;;;;;;11.98;3.15;;;;;;;20.32;74.22;101380.84;5068696;28;20050;-54
2023/08/22 01:23:13;;;;;;;9.57;3.00;;;;;;;20.34;74.03;101380.69;5068559;28;20036;-54
2023/08/22 01:25:40;;;;;;;7.22;2.50;;;;;;;20.33;73.91;101374.50;5080581;28;20116;-51
2023/08/22 01:28:22;;;;;;;5.15;2.03;;;;;;;20.33;74.16;101371.81;5078133;28;20447;-54
2023/08/22 01:31:08;;;;;;;7.57;2.53;;;;;;;20.34;74.00;101368.16;5065948;28;20067;-56
2023/08/22 01:33:37;;;;;;;;;;;;;;;20.35;73.61;101367.16;5047289;28;20049;-52
2023/08/22 01:36:06;;;;;;;5.70;2.60;;;;;;;20.38;73.51;101371.41;5045376;28;19924;-51
2023/08/22 01:38:34;;;;;;;7.50;2.67;;;;;;;20.40;73.31;101364.97;5065044;28;20056;-52
2023/08/22 01:41:02;;;;;;;11.70;2.53;;;;;;;20.40;73.24;101364.97;5067792;28;20056;-54
2023/08/22 01:43:33;;;;;;;8.35;2.63;;;;;;;20.41;72.94;101363.97;5046847;28;20510;-54
2023/08/22 01:46:00;;;;;;;8.13;2.75;;;;;;;20.42;72.50;101359.47;5057684;28;20040;-54
2023/08/22 01:48:28;;;;;;;8.43;2.83;;;;;;;20.43;72.44;101363.81;5072662;28;20709;-57
2023/08/22 01:50:55;;;;;;;5.35;2.22;;;;;;;20.44;72.26;101377.09;5069529;28;20054;-57
2023/08/22 01:53:22;;;;;;;8.02;2.05;;;;;;;20.39;72.34;101379.28;5064467;28;20682;-57
2023/08/22 01:55:49;;;;;;;7.38;1.88;;;;;;;20.39;72.40;101370.41;5075906;28;20511;-55
2023/08/22 01:58:16;;;;;;;7.47;2.92;;;;;;;20.41;72.42;101376.50;5074526;28;20060;-58
2023/08/22 02:00:43;;;;;;;16.08;3.58;;;;;;;20.42;72.52;101362.97;5072454;28;20086;-56
2023/08/22 02:03:11;;;;;;;6.82;2.20;;;;;;;20.41;72.46;101363.97;5072006;28;20049;-53
2023/08/22 02:05:38;;;;;;;6.78;2.45;;;;;;;20.38;72.74;101366.06;5067887;28;20083;-53
2023/08/22 02:08:05;;;;;;;7.60;2.42;;;;;;;20.35;73.02;101361.81;5059309;28;20052;-56
2023/08/22 02:10:32;;;;;;;8.30;2.63;;;;;;;20.35;73.09;101355.63;5068130;28;20045;-53
2023/08/22 02:13:00;;;;;;;11.75;3.47;;;;;;;20.32;73.56;101350.56;5074218;28;20059;-52
2023/08/22 02:15:27;;;;;;;10.27;2.47;;;;;;;20.29;73.85;101343.66;5072788;28;20059;-53
2023/08/22 02:17:55;;;;;;;9.07;3.10;;;;;;;20.32;74.02;101350.56;5063821;28;20067;-57
2023/08/22 02:20:25;;;;;;;10.63;3.05;;;;;;;20.30;74.12;101355.19;5066426;28;20063;-54
2023/08/22 02:22:53;;;;;;;8.73;3.03;;;;;;;20.28;74.25;101344.66;5064967;28;20052;-52
2023/08/22 02:25:20;;;;;;;8.63;3.38;;;;;;;20.29;74.13;101345.50;5067366;28;20052;-51
2023/08/22 02:27:47;;;;;;;7.53;2.10;;;;;;;20.27;74.22;101350.97;5063989;28;20044;-56
2023/08/22 02:30:15;;;;;;;12.05;2.88;;;;;;;20.26;74.40;101351.09;5068278;28;20066;-52
2023/08/22 02:32:42;;;;;;;4.80;2.30;;;;;;;20.26;74.59;101346.59;5061295;28;20055;-50
2023/08/22 02:35:10;;;;;;;8.55;2.50;;;;;;;20.26;74.75;101343.06;5065319;28;20097;-54
2023/08/22 02:37:37;;;;;;;5.22;1.63;;;;;;;20.23;74.66;101342.38;5064769;28;20419;-52
2023/08/22 02:40:09;;;;;;;6.75;2.10;;;;;;;20.21;74.97;101340.81;5064546;28;20050;-49
2023/08/22 02:42:36;;;;;;;10.73;2.20;;;;;;;20.20;74.93;101339.13;5066275;28;20048;-51
2023/08/22 02:45:05;;;;;;;8.70;2.65;;;;;;;20.20;74.84;101341.78;5065995;28;20040;-51
2023/08/22 02:47:32;;;;;;;8.82;2.35;;;;;;;20.22;75.19;101329.16;5064740;28;20056;-52
2023/08/22 02:49:59;;;;;;;7.22;2.33;;;;;;;20.24;74.92;101333.38;5062562;28;20059;-54
2023/08/22 02:52:27;;;;;;;6.40;2.05;;;;;;;20.27;74.95;101342.13;5062471;28;20096;-54
2023/08/22 02:54:54;;;;;;;5.60;2.17;;;;;;;20.28;74.61;101333.94;5068961;28;20060;-57
2023/08/22 02:57:21;;;;;;;6.30;2.50;;;;;;;20.28;74.63;101325.94;5051354;28;20049;-52
2023/08/22 02:59:48;;;;;;;8.50;2.15;;;;;;;20.28;74.69;101333.09;5069415;28;20055;-51
2023/08/22 03:02:15;;;;;;;5.15;1.70;;;;;;;20.26;74.85;101324.34;5075858;28;20139;-55
2023/08/22 03:04:43;;;;;;;6.57;2.30;;;;;;;20.22;74.44;101332.66;5075510;28;20187;-52
2023/08/22 03:07:10;;;;;;;7.95;2.08;;;;;;;20.22;74.92;101330.00;5072768;28;20052;-51
2023/08/22 03:09:40;;;;;;;7.93;2.78;;;;;;;20.23;74.84;101331.69;5065735;28;20056;-53
2023/08/22 03:12:08;;;;;;;7.57;2.42;;;;;;;20.22;75.04;101329.16;5075139;28;20055;-53
2023/08/22 03:14:35;;;;;;;7.50;2.65;;;;;;;20.22;74.82;101332.66;5076564;28;20056;-54
2023/08/22 03:17:02;;;;;;;5.95;2.05;;;;;;;20.21;74.76;101333.63;5074632;28;20075;-52
2023/08/22 03:19:29;;;;;;;10.02;2.20;;;;;;;20.19;74.85;101324.91;5070741;28;20070;-56
2023/08/22 03:21:57;;;;;;;6.60;1.88;;;;;;;20.18;75.14;101320.56;5067258;28;20060;-54
2023/08/22 03:24:24;;;;;;;5.95;2.47;;;;;;;20.19;74.88;101321.41;5066986;28;20063;-56
2023/08/22 03:26:51;;;;;;;6.40;2.28;;;;;;;20.18;74.86;101320.56;5071402;28;20460;-53
2023/08/22 03:29:18;;;;;;;9.98;2.22;;;;;;;20.15;75.09;101323.50;5071343;28;20058;-55
2023/08/22 03:31:45;;;;;;;6.45;2.05;;;;;;;20.13;75.08;101328.13;5069998;28;20055;-56
2023/08/22 03:34:12;;;;;;;7.78;2.30;;;;;;;20.13;75.03;101328.13;5074924;28;20103;-52
2023/08/22 03:36:40;;;;;;;6.28;2.25;;;;;;;20.14;74.64;101324.47;5068792;28;20059;-50
2023/08/22 03:39:07;;;;;;;5.57;2.65;;;;;;;20.17;74.65;101318.88;5071915;28;20691;-57
2023/08/22 03:41:34;;;;;;;8.60;2.20;;;;;;;20.17;74.58;101326.88;5049034;28;20473;-54
2023/08/22 03:44:02;;;;;;;5.50;2.10;;;;;;;20.16;74.47;101321.66;5071283;28;20147;-55
2023/08/22 03:46:29;;;;;;;5.85;2.30;;;;;;;20.17;74.53;101326.00;5065955;28;20059;-56
2023/08/22 03:49:05;;;;;;;5.72;2.15;;;;;;;20.21;74.13;101314.06;5072763;28;20071;-55
2023/08/22 03:51:32;;;;;;;9.23;2.67;;;;;;;20.21;73.68;101316.75;5048721;28;20059;-56
2023/08/22 03:53:59;;;;;;;5.30;2.00;;;;;;;20.22;73.62;101319.31;5070899;28;20052;-54
2023/08/22 03:56:28;;;;;;;8.10;2.28;;;;;;;20.24;73.21;101316.47;5069978;28;20705;-54
2023/08/22 03:58:55;;;;;;;8.50;2.00;;;;;;;20.23;73.39;101315.63;5070214;28;20044;-55
2023/08/22 04:01:22;;;;;;;5.30;1.83;;;;;;;20.20;73.10;101313.22;5065967;28;20048;-54
2023/08/22 04:03:49;;;;;;;6.20;2.05;;;;;;;20.14;72.79;101305.75;5066832;28;20048;-54
2023/08/22 04:06:17;;;;;;;6.80;1.80;;;;;;;20.08;73.02;101303.63;5071336;28;20048;-54
2023/08/22 04:08:44;;;;;;;3.90;1.85;;;;;;;20.06;72.79;101310.09;5065568;28;20049;-52
2023/08/22 04:11:11;;;;;;;5.45;1.92;;;;;;;20.04;72.82;101298.66;5067133;28;20399;-53
2023/08/22 04:13:38;;;;;;;5.35;2.03;;;;;;;20.06;72.83;101299.41;5071482;28;20066;-52
2023/08/22 04:16:05;;;;;;;6.05;2.03;;;;;;;20.05;72.75;101290.53;5079053;28;20054;-52
2023/08/22 04:18:32;;;;;;;5.35;1.90;;;;;;;20.06;72.72;101286.88;5069552;28;20060;-51
2023/08/22 04:20:59;;;;;;;5.40;2.10;;;;;;;20.09;72.52;101293.78;5066273;28;20044;-49
2023/08/22 04:23:27;;;;;;;7.53;2.20;;;;;;;20.07;72.40;101299.25;5072327;28;20518;-54
2023/08/22 04:25:54;;;;;;;6.65;1.83;;;;;;;20.08;72.26;101300.94;5071864;28;20113;-58
2023/08/22 04:28:22;;;;;;;5.18;1.73;;;;;;;20.09;72.07;101297.31;5069100;28;20123;-50
2023/08/22 04:30:49;;;;;;;5.68;1.83;;;;;;;20.15;72.06;101282.53;5064790;28;20044;-57
2023/08/22 04:33:17;;;;;;;5.88;1.75;;;;;;;20.17;71.54;101275.22;5051996;28;20037;-54
2023/08/22 04:35:44;;;;;;;5.43;1.75;;;;;;;20.20;71.32;101288.31;5058903;28;20052;-55
2023/08/22 04:38:11;;;;;;;6.07;2.00;;;;;;;20.20;70.97;101289.16;5036870;28;20052;-53
2023/08/22 04:40:38;;;;;;;4.47;1.83;;;;;;;20.21;70.65;101288.19;5069231;28;20313;-51
2023/08/22 04:43:05;;;;;;;7.68;2.00;;;;;;;20.23;70.59;101280.03;5055826;28;20048;-53
2023/08/22 04:45:32;;;;;;;4.63;1.75;;;;;;;20.24;70.53;101277.22;5071969;28;20084;-51
2023/08/22 04:47:59;;;;;;;5.03;1.80;;;;;;;20.27;70.20;101284.13;5078417;28;20048;-55
2023/08/22 04:50:28;;;;;;;2.90;1.85;;;;;;;20.30;70.31;101291.88;5070294;28;20075;-56
2023/08/22 04:52:56;;;;;;;5.63;1.60;;;;;;;20.33;70.00;101283.56;5074832;28;20055;-55
2023/08/22 04:55:23;;;;;;;10.32;2.47;;;;;;;20.37;69.70;101276.97;5059108;28;20056;-56
2023/08/22 04:57:51;;;;;;;5.65;2.03;;;;;;;20.42;68.81;101281.91;5077774;28;20074;-52
2023/08/22 05:00:18;;;;;;;3.92;1.75;;;;;;;20.43;68.87;101284.44;5072226;28;20464;-55
2023/08/22 05:02:45;;;;;;;5.97;2.10;;;;;;;20.48;68.54;101278.69;5077337;28;20062;-55
2023/08/22 05:05:12;;;;;;;6.53;1.65;;;;;;;20.52;68.20;101279.28;5071282;28;20056;-57
2023/08/22 05:07:39;;;;;;;4.22;1.73;;;;;;;20.52;67.79;101265.91;5080678;28;20048;-56
2023/08/22 05:10:07;;;;;;;8.73;2.13;;;;;;;20.52;67.87;101257.88;5069039;28;20617;-52
2023/08/22 05:12:34;;;;;;;8.50;2.05;;;;;;;20.52;67.60;101258.72;5088711;28;20131;-55
2023/08/22 05:15:02;;;;;;;7.10;2.15;;;;;;;20.54;67.23;101256.75;5082125;28;20389;-54
2023/08/22 05:17:30;;;;;;;5.90;1.85;;;;;;;20.61;67.25;101257.88;5069601;28;20062;-56
2023/08/22 05:19:57;;;;;;;5.68;1.92;;;;;;;20.66;66.70;101263.66;5073665;28;20430;-57
2023/08/22 05:22:24;;;;;;;6.30;2.03;;;;;;;20.70;66.63;101257.03;5077902;28;20651;-53
2023/08/22 05:24:51;;;;;;;4.93;2.00;;;;;;;20.73;66.31;101237.19;5075034;28;20062;-52
2023/08/22 05:27:19;;;;;;;8.40;2.05;;;;;;;20.77;66.33;101243.94;5075226;28;20062;-57
2023/08/22 05:29:46;;;;;;;6.15;1.90;;;;;;;20.81;66.29;101245.38;5072606;28;20656;-52
2023/08/22 05:32:13;;;;;;;4.57;1.90;;;;;;;20.85;66.21;101246.78;5075474;28;20137;-56
2023/08/22 05:34:40;;;;;;;6.18;2.35;;;;;;;20.88;66.39;101253.66;5072145;28;20094;-55
2023/08/22 05:37:07;;;;;;;6.47;1.75;;;;;;;20.91;66.36;101262.25;5072926;28;20051;-54
2023/08/22 05:39:34;;;;;;;7.53;1.73;;;;;;;20.97;66.31;101256.31;5073686;28;20056;-56
2023/08/22 05:42:02;;;;;;;5.60;1.73;;;;;;;21.05;66.21;101254.78;5080885;28;20060;-56
2023/08/22 05:44:31;;;;;;;9.75;1.92;;;;;;;21.16;65.42;101251.91;5076372;28;20052;-56
2023/08/22 05:46:59;;;;;;;6.70;2.33;;;;;;;21.20;65.22;101246.13;5075071;28;20057;-52
2023/08/22 05:49:26;;;;;;;6.75;1.67;;;;;;;21.27;65.37;101253.63;5079253;28;20445;-54
2023/08/22 05:52:05;;;;;;;7.18;2.17;;;;;;;21.34;64.82;101249.38;5077171;28;20147;-51
2023/08/22 05:54:33;;;;;;;7.82;2.15;;;;;;;21.43;64.42;101257.41;5091996;22;20048;-56
2023/08/22 05:57:00;;;;;;;8.95;1.85;;;;;;;21.48;64.23;101254.28;5064413;28;20057;-56
2023/08/22 05:59:27;;;;;;;8.25;1.85;;;;;;;21.56;64.37;101265.09;5077768;28;20060;-51
2023/08/22 06:01:54;;;;;;;6.68;1.95;;;;;;;21.66;64.15;101267.75;5078525;28;20055;-56
2023/08/22 06:04:25;;;;;;;4.07;1.45;;;;;;;21.68;63.92;101263.09;5075207;28;20076;-50
2023/08/22 06:06:52;;;;;;;7.97;1.67;;;;;;;21.64;63.89;101259.88;5086315;28;20487;-54
2023/08/22 06:09:20;;;;;;;6.43;1.98;;;;;;;21.54;64.11;101269.78;5091691;28;20048;-53
2023/08/22 06:11:48;;;;;;;6.25;1.80;;;;;;;21.44;64.54;101271.66;5091817;28;20060;-54
2023/08/22 06:14:15;;;;;;;5.85;2.22;;;;;;;21.43;64.17;101278.84;5088018;28;20488;-54
2023/08/22 06:16:42;;;;;;;6.13;1.85;;;;;;;21.47;64.32;101276.69;5088223;28;20449;-52
2023/08/22 06:19:09;;;;;;;5.75;2.22;;;;;;;21.50;63.78;101263.03;5092447;28;20040;-53
2023/08/22 06:21:36;;;;;;;6.60;2.47;;;;;;;21.57;64.32;101265.94;5096648;28;20159;-52
2023/08/22 06:24:04;;;;;;;6.50;1.80;;;;;;;21.62;64.10;101267.22;5092696;28;20143;-63
2023/08/22 06:26:31;;;;;;;9.93;2.42;;;;;;;21.69;64.14;101254.91;5092886;28;20128;-65
2023/08/22 06:28:59;;;;;;;8.35;2.38;;;;;;;21.80;63.36;101248.53;5091163;28;20134;-64
2023/08/22 06:31:26;;;;;;;6.80;1.90;;;;;;;21.93;63.53;101250.84;5086198;28;20056;-64
2023/08/22 06:33:53;;;;;;;6.53;1.85;;;;;;;22.01;62.91;101250.94;5081926;28;20326;-63
2023/08/22 06:36:20;;;;;;;5.82;1.75;;;;;;;22.05;62.67;101259.53;5091200;28;20074;-64
2023/08/22 06:38:48;;;;;;;5.40;2.05;;;;;;;22.05;62.18;101257.69;5095339;28;20499;-62
2023/08/22 06:41:18;;;;;;;9.73;1.92;;;;;;;22.02;62.11;101255.34;5096186;28;20039;-64
2023/08/22 06:43:46;;;;;;;6.40;2.00;;;;;;;22.01;62.21;101245.59;5092697;28;20207;-64
2023/08/22 06:46:15;;;;;;;10.40;2.10;;;;;;;21.99;62.33;101256.47;5099002;28;20044;-64
2023/08/22 06:48:43;;;;;;;6.88;1.73;;;;;;;22.06;61.92;101253.16;5100946;28;20047;-63
2023/08/22 06:51:10;;;;;;;12.25;2.60;;;;;;;22.17;61.75;101250.34;5105592;28;20058;-62
2023/08/22 06:53:37;;;;;;;4.10;1.98;;;;;;;22.40;60.90;101248.91;5099535;28;20055;-65
2023/08/22 06:56:04;;;;;;;6.25;2.00;;;;;;;22.62;60.17;101239.56;5098568;28;20139;-64
2023/08/22 06:58:32;;;;;;;6.30;1.83;;;;;;;22.72;59.44;101255.59;5092266;28;20058;-64
2023/08/22 07:00:59;;;;;;;4.80;1.40;;;;;;;22.82;59.18;101260.88;5098929;28;20066;-64
2023/08/22 07:03:26;;;;;;;6.20;1.52;;;;;;;22.94;59.50;101260.50;5091401;28;20056;-64
2023/08/22 07:05:53;;;;;;;6.30;1.60;;;;;;;23.03;59.63;101244.47;5098825;28;20052;-63
2023/08/22 07:08:21;;;;;;;7.57;1.95;;;;;;;23.07;59.08;101240.47;5107287;28;20229;-64
2023/08/22 07:10:48;;;;;;;4.63;1.73;;;;;;;23.00;58.62;101226.81;5100247;28;20142;-63
2023/08/22 07:13:16;;;;;;;4.15;1.85;;;;;;;23.05;58.46;101229.03;5100191;28;20051;-62
2023/08/22 07:15:46;;;;;;;6.63;2.10;;;;;;;23.22;58.21;101244.25;5097191;28;20587;-63
2023/08/22 07:18:13;;;;;;;11.65;2.20;;;;;;;23.35;57.60;101242.00;5103966;28;20155;-62
2023/08/22 07:20:40;;;;;;;5.80;1.83;;;;;;;23.48;57.75;101237.03;5096193;28;20130;-63
2023/08/22 07:23:08;;;;;;;6.65;1.92;;;;;;;23.51;56.38;101235.88;5097265;28;20483;-62
2023/08/22 07:25:35;;;;;;;5.80;2.30;;;;;;;23.46;56.84;101252.50;5098363;28;20050;-64
2023/08/22 07:28:03;;;;;;;8.40;2.10;;;;;;;23.41;55.95;101248.56;5093921;28;20062;-63
2023/08/22 07:30:32;;;;;;;5.28;2.25;;;;;;;23.33;55.65;101253.91;5091558;28;20486;-63
2023/08/22 07:32:59;;;;;;;7.35;1.98;;;;;;;23.22;56.22;101237.03;5099209;28;20058;-63
2023/08/22 07:35:27;;;;;;;6.40;2.15;;;;;;;23.21;56.08;101223.78;5088229;28;20135;-62
2023/08/22 07:37:54;;;;;;;5.07;1.63;;;;;;;23.21;56.38;101238.03;5098132;28;20155;-62
2023/08/22 07:40:22;;;;;;;5.03;2.03;;;;;;;23.21;56.58;101238.03;5100684;28;20076;-63
2023/08/22 07:42:49;;;;;;;4.75;1.75;;;;;;;23.16;56.81;101232.31;5095718;28;20058;-64
2023/08/22 07:45:16;;;;;;;5.68;1.58;;;;;;;23.13;56.51;101226.41;5096709;28;20054;-64
2023/08/22 07:47:43;;;;;;;5.80;1.40;;;;;;;23.13;56.64;101237.97;5094076;28;20044;-65
2023/08/22 07:50:10;;;;;;;6.72;1.75;;;;;;;23.28;55.93;101234.72;5100047;28;20057;-64
2023/08/22 07:52:37;;;;;;;10.82;1.88;;;;;;;23.46;55.51;101216.69;5096763;28;20052;-65
2023/08/22 07:55:05;;;;;;;6.88;1.73;;;;;;;23.66;54.71;101202.03;5093242;28;20040;-63
2023/08/22 07:57:32;;;;;;;6.78;1.60;;;;;;;23.85;54.10;101200.09;5089984;28;20056;-64
2023/08/22 08:00:00;;;;;;;6.93;1.55;;;;;;;24.01;53.55;101208.22;5095643;28;20048;-64
2023/08/22 08:02:27;;;;;;;5.88;2.10;;;;;;;24.15;53.50;101212.13;5095108;28;20158;-63
2023/08/22 08:04:55;;;;;;;7.63;1.95;;;;;;;24.25;53.32;101197.50;5094802;28;20058;-64
2023/08/22 08:07:22;;;;;;;6.30;1.38;;;;;;;24.33;53.27;101212.00;5097798;28;20521;-63
2023/08/22 08:09:49;;;;;;;5.95;1.95;;;;;;;24.53;52.99;101210.69;5105527;28;20509;-64
2023/08/22 08:12:16;;;;;;;6.68;1.67;;;;;;;24.60;52.31;101218.94;5096906;28;20067;-64
2023/08/22 08:14:43;;;;;;;8.02;1.70;;;;;;;24.60;52.52;101227.03;5099407;28;20134;-65
2023/08/22 08:17:11;;;;;;;7.88;1.77;;;;;;;24.50;52.60;101227.19;5104123;28;20139;-64
2023/08/22 08:19:39;;;;;;;4.45;1.55;;;;;;;24.40;52.81;101221.94;5096037;28;20190;-63
2023/08/22 08:22:06;;;;;;;4.13;1.70;;;;;;;24.31;53.38;101225.59;5097693;28;20697;-63
2023/08/22 08:24:33;;;;;;;6.53;1.92;;;;;;;24.26;53.54;101230.63;5090071;28;20120;-63
2023/08/22 08:27:00;;;;;;;9.45;2.25;;;;;;;24.19;53.73;101230.47;5080829;28;20050;-63
2023/08/22 08:29:28;;;;;;;5.20;2.15;;;;;;;24.27;53.72;101232.31;5093339;28;20094;-64
2023/08/22 08:31:56;;;;;;;5.18;1.67;;;;;;;24.32;53.14;101221.09;5101585;28;20090;-64
2023/08/22 08:34:24;;;;;;;7.90;1.88;;;;;;;24.44;53.10;101209.84;5096569;28;20154;-64
2023/08/22 08:36:52;;;;;;;7.75;1.70;;;;;;;24.49;53.15;101203.94;5096717;28;20048;-62
2023/08/22 08:39:20;;;;;;;14.65;2.00;;;;;;;24.66;53.15;101212.88;5097798;28;20061;-62
2023/08/22 08:42:05;;;;;;;11.02;1.70;;;;;;;24.88;52.81;101209.50;5097801;28;20078;-62
2023/08/22 08:44:34;;;;;;;6.03;1.48;;;;;;;25.04;52.36;101208.66;5090851;28;20395;-63
2023/08/22 08:47:02;;;;;;;8.02;1.70;;;;;;;25.10;51.91;101217.94;5097467;28;20440;-62
2023/08/22 08:49:34;;;;;;;4.18;1.80;;;;;;;25.08;51.42;101201.09;5094072;28;20415;-63
2023/08/22 08:52:05;;;;;;;8.10;1.65;;;;;;;25.13;50.94;101199.59;5089121;28;20054;-63
2023/08/22 08:54:32;;;;;;;7.38;1.58;;;;;;;25.20;50.92;101203.25;5096956;28;20062;-64
2023/08/22 08:57:00;;;;;;;6.57;2.00;;;;;;;25.17;51.07;101195.53;5098503;28;20143;-63
2023/08/22 08:59:29;;;;;;;9.77;1.80;;;;;;;25.10;51.36;101193.69;5088455;28;20143;-65
2023/08/22 09:01:56;;;;;;;8.38;2.22;;;;;;;25.08;51.71;101199.28;5096980;28;20058;-64
2023/08/22 09:04:24;;;;;;;7.35;1.67;;;;;;;24.96;52.26;101208.69;5103922;28;20046;-62
2023/08/22 09:06:51;;;;;;;5.97;2.08;;;;;;;25.06;52.28;101200.41;5096141;28;20048;-63
2023/08/22 09:09:19;;;;;;;4.13;1.85;;;;;;;25.25;51.60;101202.75;5093853;28;20040;-63
2023/08/22 09:11:49;;;;;;;6.07;1.80;;;;;;;25.55;51.71;101187.66;5095282;28;20062;-63
2023/08/22 09:14:20;;;;;;;6.65;2.17;;;;;;;25.77;51.52;101191.50;5092603;28;20058;-63
2023/08/22 09:16:48;;;;;;;8.55;1.52;;;;;;;26.05;51.16;101188.28;5096291;28;20075;-64
2023/08/22 09:19:16;;;;;;;5.93;1.95;;;;;;;26.27;50.80;101182.91;5089940;28;20048;-64
2023/08/22 09:21:57;;;;;;;10.95;1.52;;;;;;;26.40;49.22;101184.19;5089252;28;20052;-64
2023/08/22 09:24:25;;;;;;;7.30;1.50;;;;;;;26.53;49.10;101180.91;5094704;28;20050;-64
2023/08/22 09:26:52;;;;;;;6.53;1.50;;;;;;;26.68;48.65;101173.69;5073210;28;20051;-64
2023/08/22 09:29:27;;;;;;;7.72;2.65;;;;;;;26.84;48.40;101164.56;5094151;28;20575;-63
2023/08/22 09:31:57;;;;;;;3.65;1.50;;;;;;;26.96;48.13;101172.06;5088881;28;20532;-64
2023/08/22 09:34:24;;;;;;;4.07;1.52;;;;;;;27.05;48.05;101163.88;5090878;28;20047;-65
2023/08/22 09:36:52;;;;;;;4.15;1.98;;;;;;;27.21;47.56;101171.84;5093561;28;20136;-63
2023/08/22 09:39:22;;;;;;;5.90;1.77;;;;;;;27.48;48.11;101173.03;5090465;28;20056;-65
2023/08/22 09:41:54;;;;;;;5.38;1.52;;;;;;;27.75;47.41;101169.69;5069783;28;20056;-63
2023/08/22 09:44:25;;;;;;;8.18;1.75;;;;;;;27.87;46.82;101170.00;5089354;28;20598;-63
2023/08/22 09:46:54;;;;;;;3.45;1.30;;;;;;;28.06;46.59;101163.16;5094040;28;20135;-63
2023/08/22 09:49:22;;;;;;;5.82;1.40;;;;;;;28.35;46.20;101161.38;5094194;28;20047;-63
2023/08/22 09:51:51;;;;;;;7.28;1.77;;;;;;;28.47;45.14;101173.38;5094389;28;20635;-63
2023/08/22 09:54:19;;;;;;;5.25;1.45;;;;;;;28.37;45.12;101176.41;5089768;28;20475;-64
2023/08/22 09:56:46;;;;;;;5.35;1.80;;;;;;;28.21;44.88;101163.94;5090011;28;20526;-63
2023/08/22 09:59:14;;;;;;;6.30;1.45;;;;;;;28.16;45.35;101163.66;5093311;28;20048;-65
2023/08/22 10:01:42;;;;;;;4.05;1.80;;;;;;;28.09;45.19;101160.06;5087484;28;20472;-61
2023/08/22 10:04:10;;;;;;;4.78;2.08;;;;;;;28.06;45.23;101156.91;5075968;28;20144;-64
2023/08/22 10:06:38;;;;;;;8.02;2.13;;;;;;;27.89;45.31;101159.00;5089203;28;20136;-64
2023/08/22 10:09:10;;;;;;;7.85;2.20;;;;;;;27.75;45.85;101153.44;5093621;28;20130;-66
2023/08/22 10:11:49;;;;;;;9.55;1.95;;;;;;;27.68;45.95;101151.66;5088990;28;20127;-64
2023/08/22 10:14:23;;;;;;;9.65;2.15;;;;;;;27.63;46.32;101145.97;5090065;28;20063;-64
2023/08/22 10:16:50;;;;;;;7.03;1.80;;;;;;;27.67;46.06;101150.81;5082944;28;20238;-64
2023/08/22 10:19:20;;;;;;;9.45;2.63;;;;;;;27.83;45.99;101157.03;5074119;28;20054;-64
2023/08/22 10:21:47;;;;;;;7.72;3.20;;;;;;;28.16;45.89;101152.84;5072024;28;20052;-62
2023/08/22 10:24:26;;;;;;;12.85;4.47;;;;;;;28.63;44.93;101156.84;5095602;28;20429;-66
2023/08/22 10:27:05;;;;;;;4.72;2.03;;;;;;;28.91;43.93;101154.16;5098393;28;20083;-64
2023/08/22 10:29:36;;;;;;;7.00;2.25;;;;;;;29.08;43.44;101153.84;5072141;28;20492;-63
2023/08/22 10:32:03;;;;;;;5.95;2.05;;;;;;;29.23;42.68;101149.16;5090525;28;20472;-66
2023/08/22 10:34:33;;;;;;;3.95;1.60;;;;;;;29.26;42.26;101140.59;5092250;28;20071;-64
2023/08/22 10:37:03;;;;;;;7.32;1.95;;;;;;;29.18;41.88;101149.75;5087618;28;20476;-61
2023/08/22 10:39:38;;;;;;;7.60;2.17;;;;;;;29.14;42.22;101148.47;5081987;28;20472;-63
2023/08/22 10:42:16;;;;;;;9.98;2.60;;;;;;;28.99;42.51;101156.72;5090254;28;20073;-63
2023/08/22 10:44:57;;;;;;;5.55;2.10;;;;;;;28.90;42.63;101152.44;5088846;28;20799;-63
2023/08/22 10:47:27;;;;;;;6.05;2.03;;;;;;;28.88;42.78;101148.28;5089814;28;20040;-62
2023/08/22 10:50:09;;;;;;;7.75;2.67;;;;;;;28.87;42.94;101155.56;5084665;28;20059;-64
2023/08/22 10:52:43;;;;;;;8.95;2.10;;;;;;;28.82;42.81;101154.47;5087645;28;20110;-63
2023/08/22 10:55:13;;;;;;;4.15;1.75;;;;;;;28.72;43.28;101147.53;5091589;28;20443;-64
2023/08/22 10:57:44;;;;;;;7.88;2.08;;;;;;;28.59;42.64;101155.53;5089536;28;20060;-65
2023/08/22 11:00:18;;;;;;;10.88;2.35;;;;;;;28.51;42.34;101161.13;5070608;28;20063;-61
2023/08/22 11:03:06;;;;;;;7.57;2.28;;;;;;;28.41;42.88;101157.88;5093228;28;20064;-64
2023/08/22 11:05:33;;;;;;;5.00;1.60;;;;;;;28.36;43.27;101154.94;5086369;28;20052;-62
2023/08/22 11:08:00;;;;;;;6.88;2.08;;;;;;;28.35;44.12;101156.81;5085554;28;20126;-63
2023/08/22 11:10:28;;;;;;;5.90;1.95;;;;;;;28.41;43.96;101163.31;5071236;28;20052;-64
2023/08/22 11:12:55;;;;;;;4.63;1.60;;;;;;;28.29;44.99;101154.84;5086852;28;20748;-62
2023/08/22 11:15:23;;;;;;;9.15;2.13;;;;;;;28.32;45.23;101146.31;5082628;28;20136;-63
2023/08/22 11:17:50;;;;;;;6.25;1.70;;;;;;;28.41;45.41;101153.31;5086565;28;20055;-62
2023/08/22 11:20:20;;;;;;;12.10;2.10;;;;;;;28.39;44.93;101159.97;5088786;28;20057;-62
2023/08/22 11:22:48;;;;;;;3.88;1.50;;;;;;;28.37;45.51;101162.00;5088835;28;20155;-63
2023/08/22 11:25:24;;;;;;;8.15;1.70;;;;;;;28.32;45.91;101154.44;5074955;28;20070;-63
2023/08/22 11:27:52;;;;;;;7.13;1.50;;;;;;;28.18;45.88;101163.47;5092834;28;20126;-64
2023/08/22 11:30:20;;;;;;;4.70;2.22;;;;;;;28.15;45.58;101167.41;5088423;28;20055;-64